マドリード/バラハス の空港の天気 - METARとTAF

マドリード・バラハス国際空港 ( LEMD / MAD ) - スペイン マドリード
飛行場実況気象(Metar)
観測時間11/30 12:00 CET (11/30 11:00 UTC)
風向・風速北 3m/s
視程10km以上
天気現象
なし
気温8℃
湿度87%
気圧1024hPa
METARLEMD 301100Z 36005KT 330V040 CAVOK 08/06 Q1024 NOSIG
過去の天気等 Google飛行場航空写真 Wunderground天気予報

過去48時間のMETAR

飛行場予報(TAF)
発表時間: 11/30 06:00 CET (11/30 05:00 UTC)
予報対象時間: 30日7時 CET ~ 1日13時 CET
風向・風速不定 2m/s
視程10km以上
なし
TAF LEMD 300500Z 3006/0112 VRB04KT CAVOK TX14/3015Z TN02/0106Z